• Join FlightAware (Why Join?)
  • Login
  • US Flag 
08:54AM EDT


 

Airport Tracker/Info


-or-


 

Live Flight TrackerFlight Track Log ✈ SWA1718 ✈ 15-Apr-2013 ✈ KMDW - KBUF

Flight Track Log - Related Links

Times and Time Zones

All times are in EDT time to prevent confusion due to time zone crossing. See the SWA1718 flight status page for this flight to view local times or setup timezone preferences in your user account.

Time Position Orientation Groundspeed Altitude Reporting Facility
EDT Latitude Longitude Course Direction KTS MPH feet Rate Location/Type
11:37PM 41.8167 -87.7333 90° East 231 266 3,700  Level Chicago TRACON
11:38PM 41.8025 -87.5650 96° East 286 329 8,300 2,700 Climbing Chicago Center
11:39PM 41.7939 -87.4425 95° East 324 373 11,600 2,700 Climbing Chicago Center
11:40PM 41.7842 -87.3147 96° East 339 390 13,900 2,460 Climbing Chicago Center
11:41PM 41.7747 -87.1683 95° East 383 441 16,700 2,880 Climbing Chicago Center
11:42PM 41.7500 -86.8997 90° East  Level FlightAware Approximate
11:42PM 41.7942 -86.9906 82° East 403 464 19,800  Level Chicago Center
11:43PM 41.8147 -86.8383 80° East 414 476 22,200 2,100 Climbing Chicago Center
11:44PM 41.8342 -86.6786 81° East 430 495 24,100 1,980 Climbing Chicago Center
11:45PM 41.8528 -86.5092 82° East 451 519 26,300 1,860 Climbing Chicago Center
11:46PM 41.8733 -86.3433 80° East 451 519 27,900 1,440 Climbing Chicago Center
11:47PM 41.8931 -86.1706 81° East 463 533 29,300 1,320 Climbing Chicago Center
11:49PM 41.9139 -85.9939 81° East 476 548 30,700 780 Climbing Chicago Center
11:50PM 41.9347 -85.8139 81° East 485 558 31,000 540 Climbing Chicago Center
11:51PM 41.9567 -85.6283 81° East 497 572 31,900 1,380 Climbing Chicago Center
11:52PM 41.9769 -85.4458 81° East 490 564 33,800 1,620 Climbing Chicago Center
11:52PM 41.9986 -85.2947 79° East 497 572 34,900 660 Climbing Cleveland Center
11:53PM 42.0164 -85.1114 83° East 497 572 35,000  Climbing Cleveland Center
11:54PM 42.0339 -84.9281 83° East 492 566 35,000  Level Cleveland Center
11:55PM 42.0531 -84.7503 82° East 492 566 35,000  Level Cleveland Center
11:56PM 42.0722 -84.5642 82° East 497 572 35,000  Level Cleveland Center
11:57PM 42.0908 -84.3833 82° East 497 572 35,000  Level Cleveland Center
11:58PM 42.1025 -84.2217 84° East 497 572 35,000  Level Cleveland Center
11:59PM 42.1206 -84.0406 82° East 491 565 35,000  Level Cleveland Center
12:00AM 42.1381 -83.8681 82° East 485 558 35,000  Level Cleveland Center
12:01AM 42.1556 -83.6839 83° East 480 552 35,000  Level Cleveland Center
12:02AM 42.1756 -83.4831 82° East 486 559 35,000  Level Cleveland Center
12:03AM 42.1903 -83.3044 84° East 486 559 35,000  Level Cleveland Center
12:04AM 42.2069 -83.1258 83° East 481 554 35,000  Level Cleveland Center
12:05AM 42.2233 -82.9469 83° East 481 554 35,000  Level Cleveland Center
12:06AM 42.2394 -82.7681 83° East 481 554 35,000  Level Cleveland Center
12:07AM 42.2550 -82.5889 83° East 481 554 35,000  Level Cleveland Center
12:08AM 42.2706 -82.4069 83° East 481 554 35,000  Level Cleveland Center
12:09AM 42.2858 -82.2278 83° East 481 554 35,000  Level Cleveland Center
12:10AM 42.3006 -82.0597 83° East 481 554 35,000 -360 Level Cleveland Center
12:11AM 42.3153 -81.8747 84° East 481 554 34,300 -900 Descending Cleveland Center
12:12AM 42.3297 -81.7011 84° East 481 554 33,300 -1,020 Descending Cleveland Center
12:13AM 42.3397 -81.5269 86° East 474 545 32,300 -960 Descending Cleveland Center
12:14AM 42.3578 -81.3333 83° East 474 545 31,400 -960 Descending Cleveland Center
12:15AM 42.3692 -81.1536 85° East 474 545 30,400 -960 Descending Cleveland Center
12:16AM 42.3825 -80.9767 84° East 479 551 29,500 -960 Descending Cleveland Center
12:17AM 42.3953 -80.7969 84° East 479 551 28,500 -1,020 Descending Cleveland Center
12:18AM 42.4103 -80.6169 84° East 479 551 27,500 -1,020 Descending Cleveland Center
12:19AM 42.4561 -80.4564 69° East 458 527 26,500 -1,500 Descending Cleveland Center
12:20AM 42.5017 -80.2989 69° East 448 516 24,500 -2,100 Descending Cleveland Center
12:21AM 42.5450 -80.1519 68° East 426 490 22,300 -2,160 Descending Cleveland Center
12:22AM 42.5839 -80.0050 70° East 414 476 20,200 -1,920 Descending Cleveland Center
12:23AM 42.6269 -79.8778 65° Northeast 409 471 18,500 -1,800 Descending Cleveland Center
12:24AM 42.6614 -79.7419 71° East 399 459 16,600 -1,980 Descending Cleveland Center
12:25AM 42.7019 -79.6056 68° East 387 445 14,600 -2,040 Descending Cleveland Center
12:26AM 42.7383 -79.4778 69° East 375 432 12,600 -1,980 Descending Cleveland Center
12:27AM 42.7725 -79.3500 70° East 365 420 10,700 -1,500 Descending Cleveland Center
12:28AM 42.8064 -79.2192 71° East 344 396 9,600 -1,380 Descending Cleveland Center
12:29AM 42.8386 -79.1108 68° East 316 364 8,000 -1,380 Descending Cleveland Center
12:30AM 42.8642 -79.0111 71° East 306 352 6,900 -1,500 Descending Cleveland Center
12:31AM 42.9150 -78.9106 55° Northeast 292 336 5,100 -1,500 Descending Cleveland Center
12:32AM 42.9786 -78.8381 40° Northeast 282 325 4,000 -1,140 Descending Cleveland Center
12:33AM 43.0381 -78.7711 39° Northeast 282 325 2,900 -900 Descending Cleveland Center
12:34AM 43.0578 -78.7022 69° East 227 261 2,300 -300 Descending Cleveland Center
12:36AM 43.0000 -78.6500 147° Southeast 134 154 2,300 -300 Level Buffalo TRACON
12:37AM 42.9833 -78.6833 236° Southwest 113 130 1,700 -660 Descending Buffalo TRACON
12:38AM 42.9500 -78.7167 216° Southwest 123 142 1,000 -720 Descending Buffalo TRACON